Time;durP1;ratioP1;P1;durP2;ratioP2;P2;SDS_P1;SDS_P2;PMS_P1;PMS_P2;Temp;Humidity;BMP_temperature;BMP_pressure;BME280_temperature;BME280_humidity;BME280_pressure;Samples;Min_cycle;Max_cycle;Signal;HPM_P1;HPM_P2
2022/11/01 00:13:02;;;;;;;31.98;18.42;;;;;;;;;;4905193;29;20056;-92
2022/11/01 00:19:16;;;;;;;32.28;18.45;;;13.40;99.90;;;;;;5005640;23;20059;-94
2022/11/01 00:21:49;;;;;;;34.30;18.10;;;;;;;;;;4913521;28;20078;-95
2022/11/01 00:24:47;;;;;;;29.05;18.23;;;;;;;;;;4912724;29;20084;-95
2022/11/01 00:27:51;;;;;;;32.25;18.55;;;;;;;;;;4919547;29;20045;-95
2022/11/01 00:47:59;;;;;;;29.60;17.45;;;;;;;;;;3144616;23;20172;-91
2022/11/01 00:50:50;;;;;;;32.38;17.50;;;;;;;;;;4884819;29;20059;-93
2022/11/01 00:53:20;;;;;;;25.85;16.77;;;;;;;;;;4874873;29;20122;-91
2022/11/01 00:55:49;;;;;;;29.83;17.52;;;;;;;;;;4886556;29;20052;-90
2022/11/01 00:58:15;;;;;;;30.15;16.63;;;;;;;;;;4908614;29;20048;-93
2022/11/01 01:10:34;;;;;;;23.75;15.80;;;;;;;;;;4894588;29;20066;-90
2022/11/01 01:13:13;;;;;;;26.38;16.27;;;;;;;;;;4893034;29;20053;-93
2022/11/01 01:15:56;;;;;;;29.38;16.83;;;;;;;;;;4883065;29;20048;-93
2022/11/01 01:18:22;;;;;;;25.23;15.30;;;;;;;;;;4856641;29;20434;-92
2022/11/01 01:20:48;;;;;;;26.02;15.85;;;;;;;;;;4875599;29;20488;-91
2022/11/01 01:30:22;;;;;;;26.83;15.45;;;;;;;;;;4859404;29;20443;-93
2022/11/01 01:33:24;;;;;;;28.25;14.05;;;;;;;;;;4825817;29;20059;-93
2022/11/01 01:38:24;;;;;;;23.60;14.65;;;;;;;;;;4941399;23;20512;-92
2022/11/01 01:44:29;;;;;;;20.95;13.80;;;;;;;;;;5249825;23;20484;-92
2022/11/01 01:50:38;;;;;;;26.75;13.32;;;;;;;;;;4935705;29;20052;-91
2022/11/01 01:59:25;;;;;;;22.85;12.95;;;;;;;;;;4942606;23;20130;-93
2022/11/01 02:01:53;;;;;;;23.25;12.82;;;;;;;;;;4911331;29;20044;-91
2022/11/01 02:15:27;;;;;;;25.23;13.35;;;;;;;;;;4861077;29;20049;-93
2022/11/01 02:39:53;;;;;;;18.38;10.32;;;;;;;;;;4953273;29;20073;-91
2022/11/01 02:42:25;;;;;;;19.60;10.98;;;;;;;;;;4902786;24;20531;-91
2022/11/01 03:24:42;;;;;;;15.20;8.23;;;;;;;;;;562697;23;20465;-91
2022/11/01 03:27:14;;;;;;;17.10;9.80;;;;;;;;;;4910887;29;20052;-92
2022/11/01 03:30:00;;;;;;;19.48;9.52;;;;;;;;;;4902329;29;20082;-93
2022/11/01 03:35:18;;;;;;;15.50;8.55;;;;;;;;;;4938802;23;20417;-92
2022/11/01 03:59:38;;;;;;;13.52;7.82;;;;;;;;;;4882161;29;20054;-93
2022/11/01 04:02:20;;;;;;;20.48;9.35;;;;;;;;;;4843857;29;20162;-94
2022/11/01 04:07:26;;;;;;;16.02;8.23;;;;;;;;;;5000506;23;20094;-91
2022/11/01 04:22:22;;;;;;;13.60;7.93;;;;;;;;;;4890698;29;20139;-93
2022/11/01 04:30:30;;;;;;;;;;;;;;;;;;;;;
2022/11/01 04:33:24;;;;;;;13.65;7.63;;;;;;;;;;4859837;29;20040;-91
2022/11/01 04:36:03;;;;;;;13.00;7.25;;;;;;;;;;4847895;29;20063;-93
2022/11/01 04:38:51;;;;;;;19.25;8.50;;;;;;;;;;4868202;29;20057;-92
2022/11/01 04:49:19;;;;;;;17.63;8.10;;;;;;;;;;5047013;23;20060;-90
2022/11/01 04:51:47;;;;;;;13.68;7.60;;;;;;;;;;4909970;29;20399;-91
2022/11/01 04:57:03;;;;;;;12.27;7.47;;;;;;;;;;4949427;23;20059;-92
2022/11/01 05:03:37;;;;;;;10.63;7.13;;;;;;;;;;4928560;29;20051;-94
2022/11/01 05:06:04;;;;;;;17.88;7.63;;;;;;;;;;4906941;29;20051;-92
2022/11/01 05:08:31;;;;;;;12.68;6.85;;;;;;;;;;4897458;29;20058;-93
2022/11/01 05:11:13;;;;;;;23.90;8.15;;;;;;;;;;4916902;29;20051;-93
2022/11/01 05:16:05;;;;;;;12.75;7.38;;;;;;;;;;4934473;23;20056;-92
2022/11/01 05:18:47;;;;;;;14.95;7.00;;;;;;;;;;4878500;29;20044;-92
2022/11/01 05:21:13;;;;;;;14.98;8.90;;;;;;;;;;4884595;29;20334;-92
2022/11/01 05:23:48;;;;;;;15.93;7.22;;;;;;;;;;4885435;29;20727;-92
2022/11/01 05:26:33;;;;;;;12.25;6.70;;;;;;;;;;4886905;29;20047;-93
2022/11/01 05:29:00;;;;;;;13.07;7.97;;;;;;;;;;4883519;29;20047;-93
2022/11/01 05:31:58;;;;;;;;;;;;;;;;;;;;;
2022/11/01 06:01:16;;;;;;;14.48;6.40;;;;;;;;;;4913039;29;20550;-91
2022/11/01 06:10:19;;;;;;;10.48;4.20;;;;;;;;;;4918925;29;20138;-93
2022/11/01 06:12:45;;;;;;;;;;;;;;;;;;4918579;29;20459;-93
2022/11/01 06:18:08;;;;;;;8.60;3.03;;;;;;;;;;4900592;23;20059;-92
2022/11/01 06:20:37;;;;;;;11.13;3.28;;;;;;;;;;4881031;29;20063;-91
2022/11/01 06:23:26;;;;;;;7.70;2.30;;;;;;;;;;4883160;29;20054;-92
2022/11/01 06:25:59;;;;;;;6.35;1.65;;;;;;;;;;4870845;29;20497;-93
2022/11/01 06:28:25;;;;;;;4.93;1.45;;;;;;;;;;4867743;29;20043;-93
2022/11/01 06:31:01;;;;;;;8.32;1.42;;;;;;;;;;4870460;29;20128;-93
2022/11/01 06:33:42;;;;;;;4.35;1.38;;;;;;;;;;4886061;29;20404;-91
2022/11/01 06:36:24;;;;;;;2.30;1.10;;;;;;;;;;4879520;29;20490;-92
2022/11/01 06:38:54;;;;;;;5.07;1.35;;;;;;;;;;4890454;29;20851;-92
2022/11/01 06:41:23;;;;;;;6.15;1.42;;;;;;;;;;4880853;29;20045;-91
2022/11/01 06:47:18;;;;;;;3.78;0.82;;;;;;;;;;4805760;29;20528;-94
2022/11/01 06:50:03;;;;;;;4.63;0.90;;;;;;;;;;4819713;29;20061;-92
2022/11/01 06:52:36;;;;;;;5.20;1.48;;;;;;;;;;4780793;29;20066;-91
2022/11/01 06:55:25;;;;;;;3.20;0.98;;;;;;;;;;4804181;29;20055;-88
2022/11/01 06:58:14;;;;;;;2.50;0.70;;;;;;;;;;4791379;29;20058;-88
2022/11/01 07:00:40;;;;;;;2.35;1.35;;;;;;;;;;4801144;29;20044;-86
2022/11/01 07:03:12;;;;;;;2.40;0.98;;;;;;;;;;4820040;29;20076;-89
2022/11/01 07:05:38;;;;;;;4.05;1.00;;;;;;;;;;4808204;29;20050;-86
2022/11/01 07:08:05;;;;;;;8.38;1.10;;;;;;;;;;4801746;29;20162;-85
2022/11/01 07:10:31;;;;;;;1.75;0.63;;;;;;;;;;4834186;29;20058;-86
2022/11/01 07:12:58;;;;;;;4.75;1.02;;;;;;;;;;4812550;29;20566;-87
2022/11/01 07:16:07;;;;;;;3.60;0.98;;;;;;;;;;4813925;29;20078;-90
2022/11/01 07:18:33;;;;;;;5.18;0.77;;;;;;;;;;4883695;29;20644;-88
2022/11/01 07:21:13;;;;;;;7.53;1.20;;;;;;;;;;4853113;29;20148;-88
2022/11/01 07:23:42;;;;;;;3.97;0.90;;;;;;;;;;4884243;29;20095;-88
2022/11/01 07:26:08;;;;;;;8.40;1.27;;;;;;;;;;4878233;29;20052;-91
2022/11/01 07:28:34;;;;;;;6.47;1.35;;;;;;;;;;4854237;29;20125;-89
2022/11/01 07:31:01;;;;;;;7.60;1.35;;;;;;;;;;4873080;29;20525;-90
2022/11/01 07:33:30;;;;;;;8.10;2.20;;;;;;;;;;4846644;29;20434;-90
2022/11/01 07:35:56;;;;;;;5.22;1.35;;;;;;;;;;4869548;29;20041;-89
2022/11/01 07:38:22;;;;;;;9.68;1.40;;;;;;;;;;4851272;29;20041;-87
2022/11/01 07:40:51;;;;;;;8.82;1.35;;;;;;;;;;4847494;29;20045;-88
2022/11/01 07:43:20;;;;;;;4.78;1.55;;;;;;;;;;4880844;29;20057;-89
2022/11/01 07:45:57;;;;;;;8.10;1.17;;;;;;;;;;4863353;29;20069;-89
2022/11/01 07:48:55;;;;;;;7.97;1.35;;;;;;;;;;4860939;29;20115;-89
2022/11/01 07:51:21;;;;;;;9.13;1.85;;;;;;;;;;4879297;29;20578;-89
2022/11/01 07:54:11;;;;;;;5.30;1.42;;;;;;;;;;4863986;29;20065;-89
2022/11/01 07:56:50;;;;;;;6.47;2.00;;;;;;;;;;4871802;29;20060;-89
2022/11/01 07:59:16;;;;;;;7.18;1.48;;;;;;;;;;4877772;29;20079;-88
2022/11/01 08:01:42;;;;;;;5.60;1.42;;;;;;;;;;4878110;29;20045;-86
2022/11/01 08:04:15;;;;;;;6.18;1.90;;;;;;;;;;4878664;29;20049;-91
2022/11/01 08:06:53;;;;;;;6.40;2.25;;;;;;;;;;4865118;29;20136;-87
2022/11/01 08:09:21;;;;;;;14.57;1.88;;;;;;;;;;4872987;23;20048;-88
2022/11/01 08:11:47;;;;;;;8.32;2.20;;;;;;;;;;4897594;29;20087;-86
2022/11/01 08:14:13;;;;;;;10.48;2.67;;;;;;;;;;4900752;29;20040;-89
2022/11/01 08:16:39;;;;;;;4.28;1.00;;;;;;;;;;4912175;29;20060;-87
2022/11/01 08:19:10;;;;;;;4.80;1.50;;;;;;;;;;4917204;29;20079;-86
2022/11/01 08:21:36;;;;;;;11.38;1.83;;;;;;;;;;4899850;29;20083;-87
2022/11/01 08:24:08;;;;;;;11.15;2.03;;;;;;;;;;4894267;29;20446;-88
2022/11/01 08:26:34;;;;;;;6.32;1.67;;;;;;;;;;4897576;29;20123;-86
2022/11/01 08:29:00;;;;;;;11.07;1.83;;;;;;;;;;4854911;29;20055;-87
2022/11/01 08:31:26;;;;;;;9.32;2.00;;;;;;;;;;4880243;29;20134;-84
2022/11/01 08:33:53;;;;;;;8.18;1.63;;;;;;;;;;4869655;29;20043;-87
2022/11/01 08:36:25;;;;;;;4.68;2.00;;;;;;;;;;4914101;29;20043;-86
2022/11/01 08:38:54;;;;;;;5.15;1.80;;;;;;;;;;4902390;29;20059;-87
2022/11/01 08:41:22;;;;;;;7.85;1.67;;;;;;;;;;4932034;29;20126;-86
2022/11/01 08:43:57;;;;;;;8.38;2.10;;;;;;;;;;4903500;29;20440;-85
2022/11/01 08:46:23;;;;;;;8.90;1.48;;;;;;;;;;4887063;29;20048;-87
2022/11/01 08:48:58;;;;;;;10.20;1.90;;;;;;;;;;4908124;29;20048;-85
2022/11/01 08:51:39;;;;;;;5.13;1.70;;;;;;;;;;4878310;29;20060;-86
2022/11/01 08:54:06;;;;;;;14.60;2.38;;;;;;;;;;4911997;29;20521;-85
2022/11/01 08:56:33;;;;;;;12.57;2.10;;;;;;;;;;4849604;29;20080;-86
2022/11/01 08:59:01;;;;;;;14.85;2.35;;;;;;;;;;4884899;29;20045;-85
2022/11/01 09:01:27;;;;;;;9.18;2.42;;;;;;;;;;4892038;29;20064;-87
2022/11/01 09:03:57;;;;;;;12.38;3.25;;;;;;;;;;4892025;29;20177;-86
2022/11/01 09:06:23;;;;;;;21.05;2.90;;;;;;;;;;4890997;29;20580;-87
2022/11/01 09:08:49;;;;;;;12.30;2.70;;;;;;;;;;4877361;29;20099;-86
2022/11/01 09:11:27;;;;;;;14.25;2.78;;;;;;;;;;4886802;29;20069;-85
2022/11/01 09:13:53;;;;;;;16.42;2.70;;;;;;;;;;4871646;29;20080;-86
2022/11/01 09:16:32;;;;;;;12.77;2.80;;;;;;;;;;4898036;29;20055;-86
2022/11/01 09:19:00;;;;;;;15.05;2.63;;;;;;;;;;4893257;29;20056;-87
2022/11/01 09:21:27;;;;;;;17.73;3.10;;;;;;;;;;4892872;29;20048;-85
2022/11/01 09:23:53;;;;;;;13.77;3.70;;;;;;;;;;4912862;29;20044;-86
2022/11/01 09:26:28;;;;;;;14.50;2.92;;;;;;;;;;4912324;29;20044;-86
2022/11/01 09:28:57;;;;;;;11.70;2.95;;;;;;;;;;4912800;29;20044;-86
2022/11/01 09:31:23;;;;;;;19.17;3.10;;;;;;;;;;4896662;29;20059;-87
2022/11/01 09:33:56;;;;;;;12.65;3.30;;;;;;;;;;4895689;29;20056;-87
2022/11/01 09:36:22;;;;;;;16.65;3.42;;;;;;;;;;4912123;29;20051;-86
2022/11/01 09:38:49;;;;;;;14.30;2.45;;;;;;;;;;4910579;29;20044;-85
2022/11/01 09:41:32;;;;;;;22.73;2.97;;;;;;;;;;4896675;29;20127;-84
2022/11/01 09:43:59;;;;;;;22.90;3.72;;;;;;;;;;4878092;29;20043;-85
2022/11/01 09:46:30;;;;;;;18.48;3.25;;;;;;;;;;4869033;29;20402;-86
2022/11/01 09:48:58;;;;;;;20.92;3.83;;;;;;;;;;4920024;29;20043;-86
2022/11/01 09:51:43;;;;;;;19.88;2.70;;;;;;;;;;4917351;29;20406;-87
2022/11/01 09:54:13;;;;;;;20.02;3.47;;;;;;;;;;4912394;29;20513;-87
2022/11/01 09:56:58;;;;;;;18.98;3.60;;;;;;;;;;4911551;29;20405;-86
2022/11/01 09:59:30;;;;;;;11.15;2.35;;;;;;;;;;4881218;29;20080;-85
2022/11/01 10:02:07;;;;;;;16.38;2.92;;;;;;;;;;4912426;29;20075;-87
2022/11/01 10:04:56;;;;;;;15.93;3.20;;;;;;;;;;4913281;29;20044;-87
2022/11/01 10:07:22;;;;;;;15.07;2.45;;;;;;;;;;4841860;29;20066;-86
2022/11/01 10:09:59;;;;;;;15.13;3.78;;;;;;;;;;4872810;29;20071;-86
2022/11/01 10:12:43;;;;;;;16.17;3.50;;;;;;;;;;4909108;29;20104;-85
2022/11/01 10:15:27;;;;;;;13.10;3.35;;;;;;;;;;4879030;29;20056;-87
2022/11/01 10:17:54;;;;;;;12.27;2.70;;;;;;;;;;4915722;29;20098;-87
2022/11/01 10:20:22;;;;;;;12.80;2.80;;;;;;;;;;4917506;29;20087;-84
2022/11/01 10:22:49;;;;;;;15.35;3.05;;;;;;;;;;4891423;29;20048;-86
2022/11/01 10:25:19;;;;;;;13.93;2.90;;;;;;;;;;4890939;29;20417;-83
2022/11/01 10:27:51;;;;;;;16.02;3.45;;;;;;;;;;4890399;29;20139;-83
2022/11/01 10:30:17;;;;;;;15.02;3.70;;;;;;;;;;4919449;29;20151;-84
2022/11/01 10:32:49;;;;;;;14.07;2.13;;;;;;;;;;4892583;29;20052;-83
2022/11/01 10:35:18;;;;;;;13.65;2.50;;;;;;;;;;4874233;29;20036;-84
2022/11/01 10:38:03;;;;;;;18.85;3.38;;;;;;;;;;4909459;29;20040;-84
2022/11/01 10:40:35;;;;;;;16.40;3.58;;;;;;;;;;4907175;29;20047;-83
2022/11/01 10:43:01;;;;;;;16.30;2.97;;;;;;;;;;4908494;29;20405;-84
2022/11/01 10:45:27;;;;;;;22.85;3.53;;;;;;;;;;4894517;29;20040;-84
2022/11/01 10:47:57;;;;;;;13.07;2.75;;;;;;;;;;4913508;29;20131;-85
2022/11/01 10:50:28;;;;;;;16.95;3.42;;;;;;;;;;4913205;29;20036;-84
2022/11/01 10:52:59;;;;;;;18.45;3.05;;;;;;;;;;4906195;29;20052;-83
2022/11/01 10:55:39;;;;;;;12.98;3.00;;;;;;;;;;4895757;29;20404;-86
2022/11/01 10:58:28;;;;;;;14.02;3.22;;;;;;;;;;4891619;29;20056;-84
2022/11/01 11:00:54;;;;;;;15.95;3.03;;;;;;;;;;4887459;29;20056;-84
2022/11/01 11:03:23;;;;;;;21.38;3.75;;;;;;;;;;4898225;29;20047;-85
2022/11/01 11:05:50;;;;;;;11.35;2.47;;;;;;;;;;4900200;29;20040;-85
2022/11/01 11:08:21;;;;;;;20.65;3.85;;;;;;;;;;4868103;29;20178;-84
2022/11/01 11:10:48;;;;;;;16.52;3.63;;;;;;;;;;4909927;29;20531;-85
2022/11/01 11:13:16;;;;;;;18.92;2.75;;;;;;;;;;4911738;29;20245;-87
2022/11/01 11:16:05;;;;;;;16.88;2.83;;;;;;;;;;4909883;29;20052;-82
2022/11/01 11:18:31;;;;;;;13.30;3.10;;;;;;;;;;4911899;29;20542;-84
2022/11/01 11:21:07;;;;;;;11.32;2.20;;;;;;;;;;4913945;29;20465;-85
2022/11/01 11:23:35;;;;;;;12.85;2.95;;;;;;;;;;4914752;29;20080;-84
2022/11/01 11:26:21;;;;;;;10.18;2.40;;;;;;;;;;4894346;29;20514;-86
2022/11/01 11:28:49;;;;;;;22.02;3.83;;;;;;;;;;4877723;29;20102;-84
2022/11/01 11:31:21;;;;;;;18.08;4.55;;;;;;;;;;4901346;29;20904;-87
2022/11/01 11:33:51;;;;;;;8.38;2.08;;;;;;;;;;4918441;29;20111;-85
2022/11/01 11:36:24;;;;;;;12.45;2.63;;;;;;;;;;4914649;29;20059;-83
2022/11/01 11:38:53;;;;;;;9.35;2.45;;;;;;;;;;4893413;29;20402;-85
2022/11/01 11:41:35;;;;;;;14.70;3.10;;;;;;;;;;4895775;29;20055;-84
2022/11/01 11:44:01;;;;;;;16.30;3.53;;;;;;;;;;4897878;29;20043;-88
2022/11/01 11:46:27;;;;;;;9.65;2.33;;;;;;;;;;4914702;29;20082;-85
2022/11/01 11:48:57;;;;;;;16.45;2.33;;;;;;;;;;4916009;29;20043;-87
2022/11/01 11:51:25;;;;;;;12.20;2.95;;;;;;;;;;4913081;29;20086;-85
2022/11/01 11:54:17;;;;;;;13.48;2.83;;;;;;;;;;4908950;29;20043;-87
2022/11/01 11:56:44;;;;;;;15.02;2.97;;;;;;;;;;4910261;29;20075;-86
2022/11/01 11:59:27;;;;;;;18.42;3.90;;;;;;;;;;4912810;29;20128;-86
2022/11/01 12:02:16;;;;;;;16.33;3.40;;;;;;;;;;4910227;29;20707;-87
2022/11/01 12:04:48;;;;;;;20.48;2.90;;;;;;;;;;4904024;29;20055;-87
2022/11/01 12:07:22;;;;;;;15.35;2.65;;;;;;;;;;4895389;29;20087;-87
2022/11/01 12:09:48;;;;;;;16.42;3.47;;;;;;;;;;4921354;29;20582;-85
2022/11/01 12:12:16;;;;;;;19.15;3.70;;;;;;;;;;4893252;29;20052;-82
2022/11/01 12:14:42;;;;;;;21.23;3.72;;;;;;;;;;4900589;29;20036;-86
2022/11/01 12:17:30;;;;;;;13.40;2.45;;;;;;;;;;4894140;29;20050;-86
2022/11/01 12:20:08;;;;;;;10.50;2.63;;;;;;;;;;4900605;29;20044;-87
2022/11/01 12:22:35;;;;;;;19.00;3.60;;;;;;;;;;4911201;29;20037;-87
2022/11/01 12:25:06;;;;;;;10.85;3.17;;;;;;;;;;4893756;29;20459;-86
2022/11/01 12:27:33;;;;;;;12.00;3.30;;;;;;;;;;4910047;29;20127;-85
2022/11/01 12:30:10;;;;;;;19.98;2.47;;;;;;;;;;4891423;29;20040;-84
2022/11/01 12:32:59;;;;;;;9.18;3.30;;;;;;;;;;4909811;29;20461;-85
2022/11/01 12:35:28;;;;;;;13.10;2.65;;;;;;;;;;4901459;29;20197;-85
2022/11/01 12:38:13;;;;;;;13.93;2.88;;;;;;;;;;4911321;29;20087;-85
2022/11/01 12:40:41;;;;;;;11.77;2.67;;;;;;;;;;4925253;29;20052;-86
2022/11/01 12:43:20;;;;;;;9.85;2.33;;;;;;;;;;4885068;29;20462;-84
2022/11/01 12:45:55;;;;;;;12.07;2.92;;;;;;;;;;4921238;29;20050;-84
2022/11/01 12:48:25;;;;;;;10.07;2.28;;;;;;;;;;4898402;29;20493;-84
2022/11/01 12:50:59;;;;;;;8.40;2.75;;;;;;;;;;4908654;29;20098;-84
2022/11/01 12:53:39;;;;;;;19.67;3.55;;;;;;;;;;4898801;29;20080;-83
2022/11/01 12:56:05;;;;;;;10.95;2.80;;;;;;;;;;4906774;29;20457;-84
2022/11/01 12:58:31;;;;;;;14.20;3.60;;;;;;;;;;4907501;29;20582;-84
2022/11/01 13:01:15;;;;;;;10.82;2.83;;;;;;;;;;4907571;29;20051;-84
2022/11/01 13:03:44;;;;;;;15.50;3.75;;;;;;;;;;4905182;29;20058;-85
2022/11/01 13:06:11;;;;;;;17.90;3.97;;;;;;;;;;4905002;29;20123;-83
2022/11/01 13:08:58;;;;;;;16.33;2.70;;;;;;;;;;4904032;29;20035;-84
2022/11/01 13:11:31;;;;;;;14.30;2.67;;;;;;;;;;4873373;29;20544;-85
2022/11/01 13:14:04;;;;;;;12.90;3.13;;;;;;;;;;4873339;29;20127;-85
2022/11/01 13:16:34;;;;;;;13.43;2.97;;;;;;;;;;4870644;29;20052;-84
2022/11/01 13:19:12;;;;;;;14.65;3.00;;;;;;;;;;4892153;29;20044;-83
2022/11/01 13:21:44;;;;;;;8.43;2.00;;;;;;;;;;4889456;29;20052;-85
2022/11/01 13:24:36;;;;;;;14.02;2.85;;;;;;;;;;4886369;29;20437;-82
2022/11/01 13:27:09;;;;;;;14.55;1.95;;;;;;;;;;4873330;29;20052;-83
2022/11/01 13:29:35;;;;;;;8.80;1.93;;;;;;;;;;4861834;29;20056;-83
2022/11/01 13:32:14;;;;;;;12.30;2.40;;;;;;;;;;4891124;29;20143;-84
2022/11/01 13:34:59;;;;;;;16.13;2.72;;;;;;;;;;4888292;29;20064;-85
2022/11/01 13:37:42;;;;;;;11.10;2.40;;;;;;;;;;4891399;29;20068;-83
2022/11/01 13:40:27;;;;;;;13.38;2.08;;;;;;;;;;4893178;29;20075;-84
2022/11/01 13:43:28;;;;;;;11.60;2.63;;;;;;;;;;4902148;29;20048;-82
2022/11/01 13:46:09;;;;;;;11.95;2.35;;;;;;;;;;4829519;29;20060;-83
2022/11/01 13:48:55;;;;;;;14.40;2.55;;;;;;;;;;4894652;29;20056;-83
2022/11/01 13:51:31;;;;;;;11.63;2.15;;;;;;;;;;4897962;29;20104;-82
2022/11/01 13:54:15;;;;;;;8.63;1.73;;;;;;;;;;4879036;29;20458;-82
2022/11/01 13:56:51;;;;;;;11.98;2.67;;;;;;;;;;4875563;29;20117;-84
2022/11/01 13:59:30;;;;;;;11.15;2.15;;;;;;;;;;4895507;29;20413;-84
2022/11/01 14:02:16;;;;;;;15.35;2.30;;;;;;;;;;4890727;29;20452;-84
2022/11/01 14:05:09;;;;;;;10.70;1.90;;;;;;;;;;4862493;29;20132;-84
2022/11/01 14:07:45;;;;;;;10.32;2.28;;;;;;;;;;4873300;29;20557;-83
2022/11/01 14:10:31;;;;;;;8.52;2.00;;;;;;;;;;4853124;29;20064;-83
2022/11/01 14:12:58;;;;;;;10.45;1.88;;;;;;;;;;4857977;29;20132;-85
2022/11/01 14:15:28;;;;;;;6.45;1.58;;;;;;;;;;4877612;29;20044;-85
2022/11/01 14:18:08;;;;;;;6.97;1.90;;;;;;;;;;4877680;29;20041;-84
2022/11/01 14:20:56;;;;;;;8.02;1.70;;;;;;;;;;4880698;29;20052;-84
2022/11/01 14:23:28;;;;;;;13.65;1.73;;;;;;;;;;4880406;29;20063;-85
2022/11/01 14:26:23;;;;;;;7.07;1.88;;;;;;;;;;4876264;29;20199;-84
2022/11/01 14:28:51;;;;;;;8.73;1.60;;;;;;;;;;4895921;29;20096;-84
2022/11/01 14:31:26;;;;;;;10.20;1.70;;;;;;;;;;4895352;29;20037;-84
2022/11/01 14:33:52;;;;;;;12.63;2.28;;;;;;;;;;4874428;29;20412;-83
2022/11/01 14:36:20;;;;;;;9.75;1.73;;;;;;;;;;4881825;29;20073;-83
2022/11/01 14:38:50;;;;;;;5.32;1.15;;;;;;;;;;4880197;29;20048;-84
2022/11/01 14:41:16;;;;;;;12.20;1.98;;;;;;;;;;4892885;29;20037;-84
2022/11/01 14:43:54;;;;;;;9.23;1.60;;;;;;;;;;4861350;29;20052;-83
2022/11/01 14:46:24;;;;;;;12.07;2.15;;;;;;;;;;4894866;29;20978;-83
2022/11/01 14:49:05;;;;;;;11.15;2.22;;;;;;;;;;4893635;29;20041;-84
2022/11/01 14:51:36;;;;;;;8.88;2.20;;;;;;;;;;4882978;29;20421;-83
2022/11/01 14:54:21;;;;;;;8.63;2.25;;;;;;;;;;4893857;29;20041;-83
2022/11/01 14:56:54;;;;;;;8.55;1.80;;;;;;;;;;4863006;29;20048;-85
2022/11/01 14:59:25;;;;;;;10.90;2.08;;;;;;;;;;4880172;29;20044;-82
2022/11/01 15:01:53;;;;;;;9.82;2.03;;;;;;;;;;4861893;29;20044;-83
2022/11/01 15:04:23;;;;;;;11.60;2.20;;;;;;;;;;4874948;29;20059;-85
2022/11/01 15:06:57;;;;;;;12.05;2.40;;;;;;;;;;4911508;29;20471;-84
2022/11/01 15:09:24;;;;;;;11.27;1.70;;;;;;;;;;4895289;29;20600;-84
2022/11/01 15:12:04;;;;;;;9.10;1.85;;;;;;;;;;4884391;29;20140;-83
2022/11/01 15:14:35;;;;;;;11.23;1.83;;;;;;;;;;4916808;29;20164;-83
2022/11/01 15:17:01;;;;;;;11.07;1.90;;;;;;;;;;4919414;29;20154;-84
2022/11/01 15:19:31;;;;;;;14.35;2.83;;;;;;;;;;4902505;29;20104;-84
2022/11/01 15:22:02;;;;;;;8.88;2.00;;;;;;;;;;4901115;29;20048;-85
2022/11/01 15:24:29;;;;;;;18.25;1.90;;;;;;;;;;4915352;29;20127;-83
2022/11/01 15:26:55;;;;;;;9.75;2.05;;;;;;;;;;4917823;29;20107;-83
2022/11/01 15:29:31;;;;;;;8.05;1.80;;;;;;;;;;4896407;29;20044;-84
2022/11/01 15:32:04;;;;;;;12.70;2.85;;;;;;;;;;4892763;29;20052;-83
2022/11/01 15:34:33;;;;;;;10.55;1.88;;;;;;;;;;4894406;29;20529;-84
2022/11/01 15:40:31;;;;;;;12.43;2.28;;;15.20;99.90;;;;;;4893389;29;20060;-85
2022/11/01 15:43:01;;;;;;;12.40;1.83;;;;;;;;;;4884849;29;20095;-85
2022/11/01 15:45:34;;;;;;;9.57;2.60;;;;;;;;;;4892888;29;20115;-86
2022/11/01 15:48:02;;;;;;;8.82;1.52;;;;;;;;;;4909382;29;20036;-84
2022/11/01 15:50:32;;;;;;;9.60;1.65;;;;;;;;;;4912726;29;20056;-84
2022/11/01 15:53:00;;;;;;;13.73;2.00;;;;;;;;;;4872992;29;20080;-84
2022/11/01 15:55:38;;;;;;;8.65;2.03;;;;;;;;;;4912830;29;20063;-83
2022/11/01 15:58:07;;;;;;;8.68;1.40;;;;;;;;;;4913709;29;20079;-84
2022/11/01 16:00:41;;;;;;;8.98;1.80;;;;;;;;;;4912443;29;20048;-83
2022/11/01 16:03:18;;;;;;;7.05;1.45;;;;;;;;;;4895292;29;20058;-84
2022/11/01 16:05:47;;;;;;;12.30;1.85;;;;;;;;;;4884945;29;20052;-85
2022/11/01 16:08:40;;;;;;;7.70;1.60;;;;;;;;;;4911616;29;20457;-84
2022/11/01 16:11:07;;;;;;;9.07;2.42;;;;;;;;;;4892860;29;20082;-84
2022/11/01 16:13:36;;;;;;;9.68;1.70;;;;;;;;;;4907552;29;20588;-85
2022/11/01 16:16:02;;;;;;;9.15;2.03;;;;;;;;;;4858035;29;20075;-84
2022/11/01 16:18:32;;;;;;;9.77;1.85;;;;;;;;;;4905146;29;20058;-85
2022/11/01 16:21:17;;;;;;;8.82;1.58;;;;;;;;;;4911146;29;20083;-85
2022/11/01 16:23:49;;;;;;;9.93;2.50;;;;;;;;;;4894151;29;20147;-84
2022/11/01 16:26:15;;;;;;;8.30;1.55;;;;;;;;;;4908883;29;20047;-85
2022/11/01 16:28:46;;;;;;;8.77;1.85;;;;;;;;;;4864203;29;20063;-84
2022/11/01 16:31:19;;;;;;;9.05;2.30;;;;;;;;;;4910962;29;20048;-83
2022/11/01 16:33:48;;;;;;;12.50;2.08;;;;;;;;;;4910141;29;20528;-84
2022/11/01 16:36:17;;;;;;;10.43;2.17;;;;;;;;;;4878027;29;20047;-83
2022/11/01 16:38:58;;;;;;;12.35;2.45;;;;;;;;;;4894851;29;20044;-89
2022/11/01 16:41:35;;;;;;;6.38;1.88;;;;;;;;;;4878557;29;20063;-84
2022/11/01 16:44:21;;;;;;;10.73;2.03;;;;;;;;;;4908636;29;20104;-84
2022/11/01 16:46:47;;;;;;;7.03;2.00;;;;;;;;;;4909789;29;20048;-84
2022/11/01 16:49:13;;;;;;;17.88;2.60;;;;;;;;;;4909715;29;20051;-84
2022/11/01 16:51:39;;;;;;;5.55;1.65;;;;;;;;;;4893166;29;21527;-83
2022/11/01 16:54:08;;;;;;;9.57;1.58;;;;;;;;;;4876598;29;20092;-83
2022/11/01 16:56:43;;;;;;;13.38;2.40;;;;;;;;;;4877841;29;20101;-84
2022/11/01 16:59:18;;;;;;;9.93;2.10;;;;;;;;;;4910750;29;20500;-84
2022/11/01 17:01:45;;;;;;;11.82;1.98;;;;;;;;;;4909766;29;20048;-84
2022/11/01 17:04:27;;;;;;;8.85;1.50;;;;;;;;;;4909828;29;20075;-84
2022/11/01 17:06:54;;;;;;;8.65;2.40;;;;;;;;;;4901333;29;20047;-84
2022/11/01 17:09:24;;;;;;;8.38;1.92;;;;;;;;;;4910573;29;20113;-84
2022/11/01 17:11:52;;;;;;;18.02;2.63;;;;;;;;;;4906532;29;20060;-84
2022/11/01 17:14:28;;;;;;;8.07;1.58;;;;;;;;;;4893396;29;20527;-83
2022/11/01 17:16:57;;;;;;;10.63;2.28;;;;;;;;;;4910660;29;20675;-84
2022/11/01 17:19:31;;;;;;;10.13;2.13;;;;;;;;;;4892846;29;20379;-85
2022/11/01 17:22:11;;;;;;;12.95;2.08;;;;;;;;;;4883463;29;20111;-83
2022/11/01 17:24:38;;;;;;;14.25;2.58;;;;;;;;;;4908198;29;20043;-83
2022/11/01 17:27:14;;;;;;;11.45;2.40;;;;;;;;;;4875385;29;20430;-84
2022/11/01 17:29:43;;;;;;;9.20;1.73;;;;;;;;;;4892065;29;20142;-83
2022/11/01 17:32:11;;;;;;;4.78;1.52;;;;;;;;;;4907952;29;20063;-84
2022/11/01 17:34:40;;;;;;;8.18;1.58;;;;;;;;;;4913033;29;20075;-83
2022/11/01 17:37:07;;;;;;;10.10;2.05;;;;;;;;;;4896769;29;20052;-84
2022/11/01 17:39:33;;;;;;;7.80;1.92;;;;;;;;;;4909016;29;20386;-83
2022/11/01 17:42:09;;;;;;;6.75;1.67;;;;;;;;;;4858396;29;20049;-86
2022/11/01 17:44:35;;;;;;;13.32;2.42;;;;;;;;;;4906930;29;20055;-84
2022/11/01 17:47:04;;;;;;;7.25;1.63;;;;;;;;;;4889760;29;20044;-86
2022/11/01 17:49:33;;;;;;;7.28;2.38;;;;;;;;;;4892508;29;20880;-85
2022/11/01 17:51:59;;;;;;;9.70;1.70;;;;;;;;;;4909760;29;20051;-84
2022/11/01 17:54:30;;;;;;;10.43;2.15;;;;;;;;;;4876300;29;20055;-84
2022/11/01 17:57:14;;;;;;;9.57;1.60;;;;;;;;;;4891679;29;20058;-85
2022/11/01 18:00:09;;;;;;;5.85;1.35;;;;;;;;;;4907438;29;20429;-86
2022/11/01 18:02:41;;;;;;;8.75;1.70;;;;;;;;;;4909034;29;20153;-85
2022/11/01 18:05:14;;;;;;;11.10;2.67;;;;;;;;;;4919235;29;20096;-84
2022/11/01 18:07:47;;;;;;;9.10;1.50;;;;;;;;;;4908829;29;20388;-86
2022/11/01 18:10:13;;;;;;;11.05;2.33;;;;;;;;;;4907560;29;20838;-86
2022/11/01 18:13:14;;;;;;;9.27;1.80;;;;;;;;;;4905221;29;20103;-82
2022/11/01 18:16:02;;;;;;;14.40;2.25;;;;;;;;;;4909953;29;20052;-86
2022/11/01 18:18:28;;;;;;;9.40;2.13;;;;;;;;;;4908477;29;20044;-85
2022/11/01 18:21:12;;;;;;;5.97;1.75;;;;;;;;;;4908944;29;20044;-86
2022/11/01 18:23:41;;;;;;;7.60;2.38;;;;;;;;;;4876356;29;20442;-87
2022/11/01 18:26:21;;;;;;;9.70;1.73;;;;;;;;;;4910743;29;20052;-84
2022/11/01 18:29:00;;;;;;;8.55;1.98;;;;;;;;;;4907608;29;20044;-85
2022/11/01 18:31:58;;;;;;;9.77;1.90;;;;;;;;;;4910075;29;20056;-84
2022/11/01 18:34:39;;;;;;;8.05;1.40;;;;;;;;;;4872710;29;20120;-84
2022/11/01 18:37:24;;;;;;;6.78;1.80;;;;;;;;;;4874282;29;20063;-83
2022/11/01 18:40:02;;;;;;;11.25;2.95;;;;;;;;;;4886653;29;20079;-83
2022/11/01 18:42:29;;;;;;;8.02;1.73;;;;;;;;;;4891889;29;20051;-85
2022/11/01 18:44:56;;;;;;;11.95;2.05;;;;;;;;;;4892855;29;20055;-83
2022/11/01 18:47:44;;;;;;;10.73;2.10;;;;;;;;;;4887277;29;20134;-84
2022/11/01 18:50:16;;;;;;;11.90;1.90;;;;;;;;;;4886221;29;20048;-84
2022/11/01 18:52:48;;;;;;;6.95;2.33;;;;;;;;;;4892404;29;20136;-83
2022/11/01 18:55:20;;;;;;;11.18;1.52;;;;;;;;;;4911399;29;20068;-86
2022/11/01 18:57:52;;;;;;;11.55;1.88;;;;;;;;;;4879148;29;20056;-83
2022/11/01 19:00:19;;;;;;;5.43;1.60;;;;;;;;;;4894445;29;20135;-86
2022/11/01 19:02:45;;;;;;;11.38;1.60;;;;;;;;;;4877057;29;20091;-85
2022/11/01 19:05:18;;;;;;;5.70;1.80;;;;;;;;;;4913002;29;20048;-86
2022/11/01 19:07:50;;;;;;;9.85;1.88;;;;;;;;;;4911616;29;20523;-84
2022/11/01 19:10:17;;;;;;;15.10;2.50;;;;;;;;;;4912000;29;20054;-85
2022/11/01 19:12:46;;;;;;;8.85;2.20;;;;;;;;;;4911919;29;20135;-84
2022/11/01 19:15:19;;;;;;;7.85;1.90;;;;;;;;;;4912509;29;20036;-85
2022/11/01 19:17:46;;;;;;;9.75;2.28;;;;;;;;;;4892717;29;20064;-86